createdAt,value
2022-11-13T00:02:17.131Z,79.90
2022-11-13T00:05:03.330Z,80.00
2022-11-13T00:07:49.366Z,80.00
2022-11-13T00:10:35.353Z,80.00
2022-11-13T00:13:24.985Z,80.00
2022-11-13T00:16:16.759Z,80.00
2022-11-13T00:19:02.592Z,80.00
2022-11-13T00:21:48.842Z,80.00
2022-11-13T00:24:34.737Z,80.00
2022-11-13T00:27:21.039Z,79.90
2022-11-13T00:30:07.643Z,79.90
2022-11-13T00:32:53.567Z,80.00
2022-11-13T00:35:39.740Z,80.00
2022-11-13T00:38:26.012Z,80.00
2022-11-13T00:41:13.328Z,80.00
2022-11-13T00:43:59.489Z,80.00
2022-11-13T00:46:45.485Z,80.00
2022-11-13T00:49:31.512Z,80.00
2022-11-13T00:52:17.515Z,80.00
2022-11-13T00:55:03.598Z,80.00
2022-11-13T00:57:49.525Z,80.00
2022-11-13T01:00:35.633Z,80.00
2022-11-13T01:03:21.727Z,80.00
2022-11-13T01:06:27.935Z,80.00
2022-11-13T01:09:13.781Z,80.00
2022-11-13T01:11:59.854Z,80.00
2022-11-13T01:14:46.150Z,80.00
2022-11-13T01:17:32.265Z,80.10
2022-11-13T01:20:18.630Z,80.10
2022-11-13T01:23:04.675Z,80.20
2022-11-13T01:25:50.591Z,80.20
2022-11-13T01:28:37.334Z,80.30
2022-11-13T01:31:27.910Z,80.40
2022-11-13T01:34:14.159Z,80.60
2022-11-13T01:37:00.127Z,80.70
2022-11-13T01:39:46.000Z,80.90
2022-11-13T01:42:33.794Z,80.80
2022-11-13T01:45:51.122Z,80.90
2022-11-13T01:48:47.819Z,81.00
2022-11-13T01:51:45.784Z,81.10
2022-11-13T01:54:41.049Z,81.10
2022-11-13T01:57:27.466Z,81.20
2022-11-13T02:00:14.089Z,81.20
2022-11-13T02:03:00.275Z,81.20
2022-11-13T02:05:46.956Z,81.20
2022-11-13T02:08:32.970Z,81.30
2022-11-13T02:11:20.338Z,81.30
2022-11-13T02:14:07.541Z,81.30
2022-11-13T02:16:58.856Z,81.30
2022-11-13T02:19:49.353Z,81.20
2022-11-13T02:23:07.793Z,81.20
2022-11-13T02:25:54.759Z,81.10
2022-11-13T02:28:40.674Z,81.00
2022-11-13T02:31:26.858Z,81.00
2022-11-13T02:34:12.994Z,81.00
2022-11-13T02:36:58.843Z,81.00
2022-11-13T02:39:44.772Z,81.00
2022-11-13T02:42:30.884Z,81.00
2022-11-13T02:45:17.081Z,81.00
2022-11-13T02:48:02.893Z,81.00
2022-11-13T02:50:49.036Z,81.00
2022-11-13T02:53:34.851Z,81.00
2022-11-13T02:56:21.359Z,81.00
2022-11-13T02:59:07.251Z,81.00
2022-11-13T03:01:53.079Z,81.00
2022-11-13T03:05:10.405Z,80.90
2022-11-13T03:07:44.942Z,80.90
2022-11-13T03:10:31.082Z,80.80
2022-11-13T03:13:16.979Z,80.80
2022-11-13T03:16:15.005Z,80.80
2022-11-13T03:19:00.756Z,80.80
2022-11-13T03:21:46.839Z,80.80
2022-11-13T03:24:33.063Z,80.80
2022-11-13T03:27:19.702Z,80.80
2022-11-13T03:30:06.408Z,80.80
2022-11-13T03:32:56.257Z,80.80
2022-11-13T03:35:46.936Z,80.90
2022-11-13T03:38:33.568Z,81.50
2022-11-13T03:41:19.907Z,81.00
2022-11-13T03:44:06.040Z,81.00
2022-11-13T03:46:52.093Z,81.10
2022-11-13T03:49:38.259Z,81.00
2022-11-13T03:52:24.312Z,81.00
2022-11-13T03:55:10.603Z,81.00
2022-11-13T03:57:56.701Z,80.90
2022-11-13T04:00:43.938Z,80.90
2022-11-13T04:03:29.870Z,80.90
2022-11-13T04:06:15.774Z,80.80
2022-11-13T04:09:01.980Z,80.80
2022-11-13T04:11:48.411Z,80.80
2022-11-13T04:14:34.373Z,80.80
2022-11-13T04:17:20.277Z,81.30
2022-11-13T04:20:07.188Z,80.70
2022-11-13T04:22:52.959Z,80.60
2022-11-13T04:25:39.101Z,80.50
2022-11-13T04:28:25.015Z,80.50
2022-11-13T04:31:11.305Z,80.50
2022-11-13T04:33:57.389Z,80.50
2022-11-13T04:36:43.298Z,80.50
2022-11-13T04:39:29.328Z,80.50
2022-11-13T04:42:34.052Z,80.60
2022-11-13T04:45:22.821Z,80.60
2022-11-13T04:48:08.944Z,80.70
2022-11-13T04:50:55.070Z,80.70
2022-11-13T04:53:41.254Z,80.70
2022-11-13T04:56:27.383Z,80.80
2022-11-13T04:59:13.519Z,80.80
2022-11-13T05:01:59.925Z,80.80
2022-11-13T05:04:45.573Z,80.70
2022-11-13T05:07:31.712Z,80.70
2022-11-13T05:10:18.248Z,80.70
2022-11-13T05:13:04.107Z,80.70
2022-11-13T05:15:50.306Z,80.60
2022-11-13T05:18:37.645Z,80.70
2022-11-13T05:21:23.545Z,80.70
2022-11-13T05:24:11.832Z,80.60
2022-11-13T05:26:57.833Z,80.60
2022-11-13T05:29:43.536Z,80.50
2022-11-13T05:32:29.650Z,80.50
2022-11-13T05:35:15.691Z,80.40
2022-11-13T05:38:02.567Z,80.40
2022-11-13T05:40:48.341Z,80.40
2022-11-13T05:43:36.152Z,80.40
2022-11-13T05:46:27.833Z,80.40
2022-11-13T05:49:13.950Z,80.30
2022-11-13T05:51:59.931Z,80.30
2022-11-13T05:54:46.210Z,80.30
2022-11-13T05:57:32.311Z,80.30
2022-11-13T06:00:18.878Z,80.40
2022-11-13T06:03:04.878Z,80.40
2022-11-13T06:05:50.781Z,80.50
2022-11-13T06:08:37.709Z,80.50
2022-11-13T06:11:26.041Z,80.60
2022-11-13T06:14:12.260Z,80.70
2022-11-13T06:16:58.034Z,80.70
2022-11-13T06:19:45.102Z,80.80
2022-11-13T06:22:31.183Z,80.80
2022-11-13T06:25:17.270Z,80.70
2022-11-13T06:28:02.991Z,80.70
2022-11-13T06:30:48.971Z,80.70
2022-11-13T06:33:35.606Z,80.70
2022-11-13T06:36:27.766Z,80.70
2022-11-13T06:39:13.966Z,80.60
2022-11-13T06:41:59.879Z,80.60
2022-11-13T06:44:46.036Z,80.50
2022-11-13T06:47:32.070Z,80.50
2022-11-13T06:50:17.991Z,80.50
2022-11-13T06:53:04.373Z,80.50
2022-11-13T06:55:51.369Z,80.50
2022-11-13T06:58:38.085Z,80.40
2022-11-13T07:01:26.969Z,80.30
2022-11-13T07:04:14.155Z,80.30
2022-11-13T07:07:00.300Z,80.30
2022-11-13T07:09:46.266Z,80.20
2022-11-13T07:12:32.295Z,80.20
2022-11-13T07:15:18.949Z,80.20
2022-11-13T07:18:06.980Z,80.20
2022-11-13T07:20:53.076Z,80.20
2022-11-13T07:23:43.769Z,80.20
2022-11-13T07:26:29.925Z,80.20
2022-11-13T07:29:17.116Z,80.20
2022-11-13T07:32:03.079Z,80.80
2022-11-13T07:34:48.938Z,80.30
2022-11-13T07:37:34.979Z,80.40
2022-11-13T07:40:20.861Z,80.50
2022-11-13T07:43:06.799Z,80.60
2022-11-13T07:45:55.004Z,80.60
2022-11-13T07:48:40.939Z,80.70
2022-11-13T07:51:26.983Z,80.70
2022-11-13T07:54:13.366Z,80.70
2022-11-13T07:56:59.240Z,80.70
2022-11-13T07:59:45.254Z,80.70
2022-11-13T08:02:31.394Z,80.80
2022-11-13T08:05:17.652Z,80.80
2022-11-13T08:08:04.110Z,80.90
2022-11-13T08:10:50.094Z,81.00
2022-11-13T08:13:37.195Z,81.00
2022-11-13T08:16:23.761Z,81.00
2022-11-13T08:19:09.901Z,81.10
2022-11-13T08:21:55.980Z,81.20
2022-11-13T08:24:42.199Z,81.20
2022-11-13T08:27:28.030Z,81.20
2022-11-13T08:30:15.346Z,81.20
2022-11-13T08:33:03.552Z,81.30
2022-11-13T08:35:54.093Z,81.30
2022-11-13T08:38:39.920Z,81.30
2022-11-13T08:41:26.349Z,81.30
2022-11-13T08:44:13.629Z,81.30
2022-11-13T08:46:59.795Z,81.30
2022-11-13T08:49:45.920Z,81.40
2022-11-13T08:52:31.953Z,81.30
2022-11-13T08:55:18.529Z,81.30
2022-11-13T08:58:05.429Z,81.40
2022-11-13T09:00:51.312Z,81.30
2022-11-13T09:03:37.480Z,81.30
2022-11-13T09:06:23.415Z,81.40
2022-11-13T09:09:09.491Z,81.40
2022-11-13T09:11:55.277Z,81.30
2022-11-13T09:14:43.813Z,81.30
2022-11-13T09:17:29.690Z,81.30
2022-11-13T09:20:20.248Z,81.40
2022-11-13T09:23:09.729Z,81.40
2022-11-13T09:25:56.240Z,81.50
2022-11-13T09:28:42.204Z,81.50
2022-11-13T09:31:27.919Z,81.40
2022-11-13T09:34:14.267Z,81.30
2022-11-13T09:37:00.417Z,81.10
2022-11-13T09:39:46.158Z,81.00
2022-11-13T09:42:34.416Z,81.00
2022-11-13T09:45:20.411Z,80.90
2022-11-13T09:48:34.754Z,80.90
2022-11-13T09:51:28.539Z,80.90
2022-11-13T09:54:16.317Z,80.60
2022-11-13T09:57:26.894Z,80.40
2022-11-13T10:00:15.650Z,80.30
2022-11-13T10:03:59.410Z,80.10
2022-11-13T10:06:40.988Z,79.90
2022-11-13T10:09:51.114Z,79.80
2022-11-13T10:12:37.314Z,79.60
2022-11-13T10:15:23.490Z,79.60
2022-11-13T10:18:26.965Z,79.60
2022-11-13T10:21:20.938Z,79.50
2022-11-13T10:24:38.579Z,79.40
2022-11-13T10:27:24.595Z,79.30
2022-11-13T10:30:16.472Z,79.30
2022-11-13T10:33:06.762Z,79.70
2022-11-13T10:36:05.123Z,79.10
2022-11-13T10:39:15.580Z,79.10
2022-11-13T10:42:01.474Z,78.90
2022-11-13T10:44:59.669Z,79.00
2022-11-13T10:48:07.722Z,78.80
2022-11-13T10:51:20.413Z,78.70
2022-11-13T10:54:26.137Z,78.60
2022-11-13T10:57:30.310Z,78.60
2022-11-13T11:00:34.505Z,78.20
2022-11-13T11:03:22.798Z,78.10
2022-11-13T11:06:09.358Z,78.00
2022-11-13T11:09:17.979Z,77.90
2022-11-13T11:12:16.796Z,77.70
2022-11-13T11:15:23.348Z,77.50
2022-11-13T11:18:51.668Z,77.50
2022-11-13T11:21:40.615Z,77.40
2022-11-13T11:24:32.303Z,77.20
2022-11-13T11:27:56.922Z,77.00
2022-11-13T11:31:09.856Z,77.30
2022-11-13T11:34:02.271Z,77.00
2022-11-13T11:37:27.738Z,76.60
2022-11-13T11:40:26.413Z,76.50
2022-11-13T11:43:18.564Z,76.40
2022-11-13T11:46:04.648Z,76.20
2022-11-13T11:48:51.891Z,76.20
2022-11-13T11:51:56.890Z,75.90
2022-11-13T11:55:06.378Z,75.40
2022-11-13T11:58:26.094Z,75.60
2022-11-13T12:01:37.100Z,75.60
2022-11-13T12:04:44.961Z,75.80
2022-11-13T12:08:04.411Z,76.30
2022-11-13T12:10:59.435Z,75.90
2022-11-13T12:14:23.462Z,75.40
2022-11-13T12:17:28.184Z,75.60
2022-11-13T12:20:26.360Z,75.40
2022-11-13T12:23:34.356Z,75.20
2022-11-13T12:26:23.179Z,75.00
2022-11-13T12:29:27.819Z,75.20
2022-11-13T12:32:39.786Z,75.10
2022-11-13T12:35:27.294Z,74.90
2022-11-13T12:38:34.942Z,74.90
2022-11-13T12:41:35.887Z,74.70
2022-11-13T12:44:26.069Z,74.50
2022-11-13T12:47:12.765Z,74.30
2022-11-13T12:50:01.106Z,74.50
2022-11-13T12:52:59.038Z,74.50
2022-11-13T12:56:00.543Z,74.30
2022-11-13T12:59:34.810Z,74.00
2022-11-13T13:02:52.315Z,73.80
2022-11-13T13:06:07.930Z,74.00
2022-11-13T13:09:14.909Z,74.10
2022-11-13T13:12:42.446Z,73.70
2022-11-13T13:15:39.082Z,73.90
2022-11-13T13:18:31.889Z,73.70
2022-11-13T13:21:18.855Z,73.80
2022-11-13T13:24:11.005Z,74.80
2022-11-13T13:26:57.213Z,74.00
2022-11-13T13:29:43.289Z,74.10
2022-11-13T13:32:55.607Z,73.80
2022-11-13T13:36:00.153Z,73.30
2022-11-13T13:39:02.355Z,73.00
2022-11-13T13:42:14.214Z,72.90
2022-11-13T13:45:35.639Z,73.30
2022-11-13T13:48:27.288Z,73.30
2022-11-13T13:51:34.614Z,72.90
2022-11-13T13:54:24.016Z,72.70
2022-11-13T13:57:16.241Z,72.80
2022-11-13T14:00:02.315Z,72.70
2022-11-13T14:02:50.543Z,72.70
2022-11-13T14:05:37.868Z,72.60
2022-11-13T14:08:26.718Z,72.70
2022-11-13T14:11:19.084Z,72.70
2022-11-13T14:14:25.749Z,72.60
2022-11-13T14:17:12.678Z,72.50
2022-11-13T14:20:01.525Z,72.60
2022-11-13T14:22:55.082Z,72.50
2022-11-13T14:25:44.126Z,72.50
2022-11-13T14:28:43.309Z,72.60
2022-11-13T14:31:34.741Z,73.30
2022-11-13T14:34:24.225Z,72.80
2022-11-13T14:37:27.710Z,72.80
2022-11-13T14:40:21.795Z,72.90
2022-11-13T14:43:14.127Z,72.90
2022-11-13T14:46:05.847Z,72.90
2022-11-13T14:48:56.273Z,73.00
2022-11-13T14:51:42.560Z,73.10
2022-11-13T14:54:53.017Z,73.20
2022-11-13T14:57:48.992Z,73.30
2022-11-13T15:00:37.020Z,73.30
2022-11-13T15:03:23.649Z,73.40
2022-11-13T15:06:18.383Z,73.40
2022-11-13T15:09:07.035Z,73.30
2022-11-13T15:11:53.145Z,73.30
2022-11-13T15:14:41.665Z,73.40
2022-11-13T15:17:28.035Z,73.30
2022-11-13T15:20:23.983Z,73.20
2022-11-13T15:23:12.691Z,73.20
2022-11-13T15:25:58.776Z,73.20
2022-11-13T15:28:46.521Z,73.10
2022-11-13T15:31:38.051Z,73.10
2022-11-13T15:34:24.271Z,72.90
2022-11-13T15:37:14.789Z,72.90
2022-11-13T15:40:00.938Z,72.90
2022-11-13T15:42:47.134Z,73.00
2022-11-13T15:45:32.992Z,72.90
2022-11-13T15:48:18.921Z,72.80
2022-11-13T15:51:05.022Z,72.80
2022-11-13T15:53:59.012Z,72.80
2022-11-13T15:56:47.106Z,72.90
2022-11-13T15:59:33.174Z,73.00
2022-11-13T16:02:19.443Z,73.00
2022-11-13T16:05:05.575Z,73.00
2022-11-13T16:07:55.543Z,72.90
2022-11-13T16:10:41.918Z,73.00
2022-11-13T16:13:28.476Z,73.00
2022-11-13T16:16:25.602Z,73.00
2022-11-13T16:19:21.250Z,73.00
2022-11-13T16:22:22.482Z,72.90
2022-11-13T16:25:15.244Z,73.50
2022-11-13T16:28:01.542Z,73.00
2022-11-13T16:30:52.815Z,73.20
2022-11-13T16:33:38.847Z,73.20
2022-11-13T16:36:24.622Z,73.20
2022-11-13T16:39:16.196Z,73.30
2022-11-13T16:42:02.753Z,73.30
2022-11-13T16:44:48.754Z,73.40
2022-11-13T16:47:35.014Z,73.40
2022-11-13T16:50:24.882Z,73.50
2022-11-13T16:53:11.288Z,73.50
2022-11-13T16:55:57.349Z,73.60
2022-11-13T16:58:43.796Z,73.70
2022-11-13T17:01:29.973Z,73.80
2022-11-13T17:04:16.016Z,73.90
2022-11-13T17:07:02.672Z,74.00
2022-11-13T17:09:58.826Z,74.00
2022-11-13T17:12:54.896Z,74.00
2022-11-13T17:15:41.047Z,74.10
2022-11-13T17:18:26.875Z,74.10
2022-11-13T17:21:13.008Z,74.10
2022-11-13T17:24:03.168Z,74.20
2022-11-13T17:26:49.317Z,74.20
2022-11-13T17:29:35.283Z,74.30
2022-11-13T17:32:21.341Z,74.20
2022-11-13T17:35:08.433Z,74.30
2022-11-13T17:37:54.479Z,74.30
2022-11-13T17:40:40.810Z,74.30
2022-11-13T17:43:27.167Z,74.30
2022-11-13T17:46:15.718Z,74.30
2022-11-13T17:49:01.815Z,74.30
2022-11-13T17:51:48.016Z,74.30
2022-11-13T17:54:34.081Z,74.30
2022-11-13T17:57:25.606Z,74.30
2022-11-13T18:00:13.277Z,74.40
2022-11-13T18:02:59.122Z,74.40
2022-11-13T18:05:46.068Z,74.50
2022-11-13T18:08:32.321Z,74.40
2022-11-13T18:11:28.376Z,74.50
2022-11-13T18:14:14.721Z,74.60
2022-11-13T18:17:00.820Z,74.60
2022-11-13T18:19:46.824Z,74.60
2022-11-13T18:22:33.122Z,74.60
2022-11-13T18:25:18.968Z,74.60
2022-11-13T18:28:05.019Z,74.60
2022-11-13T18:30:56.252Z,75.10
2022-11-13T18:33:43.227Z,74.60
2022-11-13T18:36:31.939Z,75.10
2022-11-13T18:39:17.838Z,74.50
2022-11-13T18:42:04.167Z,74.40
2022-11-13T18:44:52.859Z,74.40
2022-11-13T18:47:38.693Z,74.40
2022-11-13T18:50:25.246Z,74.30
2022-11-13T18:53:12.031Z,74.20
2022-11-13T18:56:06.137Z,74.10
2022-11-13T18:58:55.259Z,74.00
2022-11-13T19:01:42.327Z,74.10
2022-11-13T19:04:29.206Z,74.10
2022-11-13T19:07:15.100Z,74.10
2022-11-13T19:10:01.377Z,74.00
2022-11-13T19:12:47.426Z,74.10
2022-11-13T19:15:35.763Z,74.10
2022-11-13T19:18:21.729Z,74.20
2022-11-13T19:21:13.434Z,74.10
2022-11-13T19:24:01.438Z,74.10
2022-11-13T19:26:47.871Z,74.20
2022-11-13T19:29:33.711Z,74.20
2022-11-13T19:32:20.780Z,74.30
2022-11-13T19:35:07.434Z,74.30
2022-11-13T19:37:58.067Z,74.30
2022-11-13T19:40:49.939Z,74.30
2022-11-13T19:43:37.716Z,74.90
2022-11-13T19:46:23.936Z,74.40
2022-11-13T19:49:09.810Z,75.00
2022-11-13T19:51:56.286Z,74.50
2022-11-13T19:54:42.570Z,74.70
2022-11-13T19:57:28.346Z,74.80
2022-11-13T20:00:15.154Z,75.00
2022-11-13T20:03:07.474Z,75.00
2022-11-13T20:06:01.284Z,75.10
2022-11-13T20:08:47.715Z,75.20
2022-11-13T20:11:34.288Z,75.20
2022-11-13T20:14:20.415Z,75.30
2022-11-13T20:17:06.786Z,75.30
2022-11-13T20:19:52.697Z,75.40
2022-11-13T20:22:38.812Z,75.30
2022-11-13T20:25:26.285Z,75.30
2022-11-13T20:28:12.069Z,75.30
2022-11-13T20:31:13.295Z,75.30
2022-11-13T20:33:59.554Z,75.60
2022-11-13T20:36:46.758Z,75.50
2022-11-13T20:39:32.823Z,75.70
2022-11-13T20:42:18.852Z,75.80
2022-11-13T20:45:05.073Z,76.00
2022-11-13T20:47:51.270Z,76.10
2022-11-13T20:50:38.629Z,76.20
2022-11-13T20:53:24.592Z,76.30
2022-11-13T20:56:10.600Z,76.40
2022-11-13T20:58:56.385Z,76.40
2022-11-13T21:01:42.585Z,76.60
2022-11-13T21:04:28.481Z,76.50
2022-11-13T21:07:14.333Z,76.60
2022-11-13T21:10:00.977Z,76.60
2022-11-13T21:12:46.973Z,76.70
2022-11-13T21:15:34.143Z,76.90
2022-11-13T21:18:20.998Z,76.80
2022-11-13T21:21:07.775Z,77.00
2022-11-13T21:23:56.746Z,77.00
2022-11-13T21:26:42.683Z,77.10
2022-11-13T21:29:28.845Z,77.20
2022-11-13T21:32:14.582Z,77.30
2022-11-13T21:35:01.135Z,77.40
2022-11-13T21:37:46.790Z,77.70
2022-11-13T21:40:32.809Z,77.60
2022-11-13T21:43:18.947Z,77.90
2022-11-13T21:46:09.012Z,78.00
2022-11-13T21:49:01.218Z,78.10
2022-11-13T21:51:47.217Z,78.40
2022-11-13T21:54:33.454Z,78.30
2022-11-13T21:57:20.083Z,78.50
2022-11-13T22:00:06.396Z,78.80
2022-11-13T22:02:52.202Z,78.80
2022-11-13T22:05:38.161Z,78.80
2022-11-13T22:08:24.138Z,78.90
2022-11-13T22:11:10.612Z,79.00
2022-11-13T22:13:57.042Z,79.10
2022-11-13T22:16:46.446Z,79.10
2022-11-13T22:19:35.930Z,79.20
2022-11-13T22:22:22.359Z,79.30
2022-11-13T22:25:08.723Z,79.30
2022-11-13T22:27:54.589Z,79.30
2022-11-13T22:30:40.667Z,79.40
2022-11-13T22:33:31.598Z,79.50
2022-11-13T22:36:21.169Z,79.50
2022-11-13T22:39:07.320Z,79.50
2022-11-13T22:41:53.073Z,79.40
2022-11-13T22:44:54.907Z,79.40
2022-11-13T22:47:42.316Z,79.50
2022-11-13T22:50:28.114Z,79.30
2022-11-13T22:53:14.952Z,79.40
2022-11-13T22:56:21.818Z,79.60
2022-11-13T22:59:11.815Z,79.80
2022-11-13T23:01:58.005Z,79.80
2022-11-13T23:04:44.006Z,79.70
2022-11-13T23:07:30.787Z,79.80
2022-11-13T23:10:16.998Z,79.70
2022-11-13T23:13:02.777Z,79.80
2022-11-13T23:15:49.171Z,79.70
2022-11-13T23:18:35.145Z,79.70
2022-11-13T23:21:22.148Z,79.60
2022-11-13T23:24:10.249Z,79.70
2022-11-13T23:26:56.817Z,79.80
2022-11-13T23:29:47.238Z,79.60
2022-11-13T23:32:35.612Z,79.70
2022-11-13T23:35:21.977Z,79.60
2022-11-13T23:38:07.962Z,79.60
2022-11-13T23:40:55.367Z,79.60
2022-11-13T23:46:47.976Z,79.60
2022-11-13T23:49:33.813Z,79.50
2022-11-13T23:52:20.118Z,79.70
2022-11-13T23:55:06.469Z,79.70
2022-11-13T23:58:04.063Z,79.60
